sensor_id;sensor_type;location;lat;lon;timestamp;P1;durP1;ratioP1;P2;durP2;ratioP2
21665;SDS011;10994;45.486;9.190;2022-09-03T00:00:23;6.10;;;5.55;;
21665;SDS011;10994;45.486;9.190;2022-09-03T00:02:56;6.68;;;6.07;;
21665;SDS011;10994;45.486;9.190;2022-09-03T00:11:20;10.05;;;6.03;;
21665;SDS011;10994;45.486;9.190;2022-09-03T00:14:02;6.47;;;5.55;;
21665;SDS011;10994;45.486;9.190;2022-09-03T00:16:44;8.40;;;5.53;;
21665;SDS011;10994;45.486;9.190;2022-09-03T00:19:19;7.03;;;5.70;;
21665;SDS011;10994;45.486;9.190;2022-09-03T00:21:54;5.55;;;5.05;;
21665;SDS011;10994;45.486;9.190;2022-09-03T00:24:24;8.20;;;6.07;;
21665;SDS011;10994;45.486;9.190;2022-09-03T00:26:54;6.72;;;6.10;;
21665;SDS011;10994;45.486;9.190;2022-09-03T00:29:27;8.77;;;6.90;;
21665;SDS011;10994;45.486;9.190;2022-09-03T00:32:12;7.75;;;5.63;;
21665;SDS011;10994;45.486;9.190;2022-09-03T00:34:44;6.45;;;5.85;;
21665;SDS011;10994;45.486;9.190;2022-09-03T00:37:15;7.07;;;5.95;;
21665;SDS011;10994;45.486;9.190;2022-09-03T00:39:40;12.07;;;6.45;;
21665;SDS011;10994;45.486;9.190;2022-09-03T00:56:14;7.45;;;6.60;;
21665;SDS011;10994;45.486;9.190;2022-09-03T01:06:49;10.05;;;7.78;;
21665;SDS011;10994;45.486;9.190;2022-09-03T01:09:43;8.23;;;7.43;;
21665;SDS011;10994;45.486;9.190;2022-09-03T01:15:29;8.30;;;7.50;;
21665;SDS011;10994;45.486;9.190;2022-09-03T01:18:36;11.07;;;8.35;;
21665;SDS011;10994;45.486;9.190;2022-09-03T01:30:10;9.23;;;7.70;;
21665;SDS011;10994;45.486;9.190;2022-09-03T01:32:44;9.77;;;8.80;;
21665;SDS011;10994;45.486;9.190;2022-09-03T01:35:26;10.15;;;8.77;;
21665;SDS011;10994;45.486;9.190;2022-09-03T01:37:57;8.50;;;7.72;;
21665;SDS011;10994;45.486;9.190;2022-09-03T01:40:41;8.75;;;7.95;;
21665;SDS011;10994;45.486;9.190;2022-09-03T01:43:22;9.48;;;8.57;;
21665;SDS011;10994;45.486;9.190;2022-09-03T01:46:02;9.63;;;8.20;;
21665;SDS011;10994;45.486;9.190;2022-09-03T01:59:19;7.38;;;6.78;;
21665;SDS011;10994;45.486;9.190;2022-09-03T02:01:55;7.38;;;6.57;;
21665;SDS011;10994;45.486;9.190;2022-09-03T02:04:54;8.73;;;7.07;;
21665;SDS011;10994;45.486;9.190;2022-09-03T02:07:23;9.95;;;8.25;;
21665;SDS011;10994;45.486;9.190;2022-09-03T02:09:54;7.75;;;6.82;;
21665;SDS011;10994;45.486;9.190;2022-09-03T02:12:19;8.13;;;7.38;;
21665;SDS011;10994;45.486;9.190;2022-09-03T02:14:45;8.07;;;7.30;;
21665;SDS011;10994;45.486;9.190;2022-09-03T02:17:12;7.22;;;6.53;;
21665;SDS011;10994;45.486;9.190;2022-09-03T02:19:38;6.70;;;6.00;;
21665;SDS011;10994;45.486;9.190;2022-09-03T02:22:03;6.18;;;5.68;;
21665;SDS011;10994;45.486;9.190;2022-09-03T02:24:30;5.85;;;5.38;;
21665;SDS011;10994;45.486;9.190;2022-09-03T02:26:56;10.00;;;6.88;;
21665;SDS011;10994;45.486;9.190;2022-09-03T02:29:23;7.88;;;6.00;;
21665;SDS011;10994;45.486;9.190;2022-09-03T02:31:49;6.20;;;5.70;;
21665;SDS011;10994;45.486;9.190;2022-09-03T02:34:15;6.22;;;5.65;;
21665;SDS011;10994;45.486;9.190;2022-09-03T02:36:42;9.63;;;5.55;;
21665;SDS011;10994;45.486;9.190;2022-09-03T02:39:13;6.03;;;5.43;;
21665;SDS011;10994;45.486;9.190;2022-09-03T02:41:40;6.00;;;5.43;;
21665;SDS011;10994;45.486;9.190;2022-09-03T02:46:52;5.35;;;4.85;;
21665;SDS011;10994;45.486;9.190;2022-09-03T02:49:21;6.13;;;5.63;;
21665;SDS011;10994;45.486;9.190;2022-09-03T02:51:47;5.90;;;5.40;;
21665;SDS011;10994;45.486;9.190;2022-09-03T02:54:13;5.75;;;5.22;;
21665;SDS011;10994;45.486;9.190;2022-09-03T02:56:39;7.13;;;5.57;;
21665;SDS011;10994;45.486;9.190;2022-09-03T02:59:06;5.30;;;4.80;;
21665;SDS011;10994;45.486;9.190;2022-09-03T03:01:33;6.00;;;5.40;;
21665;SDS011;10994;45.486;9.190;2022-09-03T03:03:59;5.97;;;5.35;;
21665;SDS011;10994;45.486;9.190;2022-09-03T03:06:25;5.28;;;4.63;;
21665;SDS011;10994;45.486;9.190;2022-09-03T03:08:51;6.05;;;4.60;;
21665;SDS011;10994;45.486;9.190;2022-09-03T03:11:19;5.05;;;4.55;;
21665;SDS011;10994;45.486;9.190;2022-09-03T03:13:47;5.20;;;4.70;;
21665;SDS011;10994;45.486;9.190;2022-09-03T03:16:13;5.03;;;4.63;;
21665;SDS011;10994;45.486;9.190;2022-09-03T03:18:40;4.88;;;4.38;;
21665;SDS011;10994;45.486;9.190;2022-09-03T03:21:06;5.40;;;4.90;;
21665;SDS011;10994;45.486;9.190;2022-09-03T03:23:36;4.63;;;4.22;;
21665;SDS011;10994;45.486;9.190;2022-09-03T03:26:03;5.47;;;4.70;;
21665;SDS011;10994;45.486;9.190;2022-09-03T03:28:30;7.57;;;5.15;;
21665;SDS011;10994;45.486;9.190;2022-09-03T03:31:04;6.35;;;5.00;;
21665;SDS011;10994;45.486;9.190;2022-09-03T03:33:31;5.22;;;4.70;;
21665;SDS011;10994;45.486;9.190;2022-09-03T03:35:57;5.15;;;4.65;;
21665;SDS011;10994;45.486;9.190;2022-09-03T03:38:27;5.07;;;4.68;;
21665;SDS011;10994;45.486;9.190;2022-09-03T03:40:52;5.82;;;3.83;;
21665;SDS011;10994;45.486;9.190;2022-09-03T03:43:19;5.32;;;4.13;;
21665;SDS011;10994;45.486;9.190;2022-09-03T03:45:54;4.97;;;4.53;;
21665;SDS011;10994;45.486;9.190;2022-09-03T03:48:21;5.18;;;4.75;;
21665;SDS011;10994;45.486;9.190;2022-09-03T03:50:46;4.88;;;4.47;;
21665;SDS011;10994;45.486;9.190;2022-09-03T03:53:13;6.43;;;4.28;;
21665;SDS011;10994;45.486;9.190;2022-09-03T03:55:38;4.28;;;3.97;;
21665;SDS011;10994;45.486;9.190;2022-09-03T03:58:06;4.50;;;3.88;;
21665;SDS011;10994;45.486;9.190;2022-09-03T04:00:31;4.32;;;3.97;;
21665;SDS011;10994;45.486;9.190;2022-09-03T04:03:02;4.45;;;4.15;;
21665;SDS011;10994;45.486;9.190;2022-09-03T04:05:28;4.57;;;4.18;;
21665;SDS011;10994;45.486;9.190;2022-09-03T04:07:54;4.50;;;4.07;;
21665;SDS011;10994;45.486;9.190;2022-09-03T04:10:19;4.97;;;4.47;;
21665;SDS011;10994;45.486;9.190;2022-09-03T04:12:45;6.30;;;4.05;;
21665;SDS011;10994;45.486;9.190;2022-09-03T04:15:11;6.78;;;4.45;;
21665;SDS011;10994;45.486;9.190;2022-09-03T04:17:36;4.25;;;3.85;;
21665;SDS011;10994;45.486;9.190;2022-09-03T04:20:03;7.07;;;4.25;;
21665;SDS011;10994;45.486;9.190;2022-09-03T04:22:30;4.35;;;3.95;;
21665;SDS011;10994;45.486;9.190;2022-09-03T04:24:55;4.30;;;3.90;;
21665;SDS011;10994;45.486;9.190;2022-09-03T04:27:21;4.60;;;4.20;;
21665;SDS011;10994;45.486;9.190;2022-09-03T04:29:47;4.10;;;3.70;;
21665;SDS011;10994;45.486;9.190;2022-09-03T04:32:12;5.50;;;3.50;;
21665;SDS011;10994;45.486;9.190;2022-09-03T04:34:56;4.38;;;3.90;;
21665;SDS011;10994;45.486;9.190;2022-09-03T04:37:22;4.03;;;3.70;;
21665;SDS011;10994;45.486;9.190;2022-09-03T04:39:47;6.30;;;4.45;;
21665;SDS011;10994;45.486;9.190;2022-09-03T04:42:13;3.90;;;3.30;;
21665;SDS011;10994;45.486;9.190;2022-09-03T04:44:39;4.55;;;4.07;;
21665;SDS011;10994;45.486;9.190;2022-09-03T04:47:11;5.10;;;4.43;;
21665;SDS011;10994;45.486;9.190;2022-09-03T04:49:36;4.25;;;3.95;;
21665;SDS011;10994;45.486;9.190;2022-09-03T04:52:04;4.40;;;4.00;;
21665;SDS011;10994;45.486;9.190;2022-09-03T04:54:29;3.92;;;3.63;;
21665;SDS011;10994;45.486;9.190;2022-09-03T04:56:55;5.47;;;3.80;;
21665;SDS011;10994;45.486;9.190;2022-09-03T04:59:21;5.20;;;3.80;;
21665;SDS011;10994;45.486;9.190;2022-09-03T05:01:46;6.55;;;4.10;;
21665;SDS011;10994;45.486;9.190;2022-09-03T05:04:12;5.03;;;3.75;;
21665;SDS011;10994;45.486;9.190;2022-09-03T05:06:38;5.20;;;4.20;;
21665;SDS011;10994;45.486;9.190;2022-09-03T05:09:04;3.67;;;3.35;;
21665;SDS011;10994;45.486;9.190;2022-09-03T05:11:30;3.85;;;3.40;;
21665;SDS011;10994;45.486;9.190;2022-09-03T05:13:57;3.40;;;3.10;;
21665;SDS011;10994;45.486;9.190;2022-09-03T05:16:23;3.42;;;3.13;;
21665;SDS011;10994;45.486;9.190;2022-09-03T05:18:51;4.07;;;3.70;;
21665;SDS011;10994;45.486;9.190;2022-09-03T05:21:18;4.03;;;3.25;;
21665;SDS011;10994;45.486;9.190;2022-09-03T05:23:44;4.65;;;3.60;;
21665;SDS011;10994;45.486;9.190;2022-09-03T05:26:21;3.15;;;2.83;;
21665;SDS011;10994;45.486;9.190;2022-09-03T05:28:52;4.60;;;3.30;;
21665;SDS011;10994;45.486;9.190;2022-09-03T05:31:22;3.60;;;3.15;;
21665;SDS011;10994;45.486;9.190;2022-09-03T05:33:54;3.78;;;3.40;;
21665;SDS011;10994;45.486;9.190;2022-09-03T05:36:25;3.97;;;3.58;;
21665;SDS011;10994;45.486;9.190;2022-09-03T05:38:52;5.43;;;3.50;;
21665;SDS011;10994;45.486;9.190;2022-09-03T05:41:18;4.10;;;3.72;;
21665;SDS011;10994;45.486;9.190;2022-09-03T05:43:48;4.57;;;2.92;;
21665;SDS011;10994;45.486;9.190;2022-09-03T05:46:20;5.38;;;3.35;;
21665;SDS011;10994;45.486;9.190;2022-09-03T05:48:51;3.83;;;3.47;;
21665;SDS011;10994;45.486;9.190;2022-09-03T05:51:18;3.70;;;3.28;;
21665;SDS011;10994;45.486;9.190;2022-09-03T05:53:45;3.05;;;2.72;;
21665;SDS011;10994;45.486;9.190;2022-09-03T05:56:13;3.33;;;2.72;;
21665;SDS011;10994;45.486;9.190;2022-09-03T05:58:45;2.85;;;2.60;;
21665;SDS011;10994;45.486;9.190;2022-09-03T06:03:39;3.92;;;3.10;;
21665;SDS011;10994;45.486;9.190;2022-09-03T06:06:06;6.38;;;3.00;;
21665;SDS011;10994;45.486;9.190;2022-09-03T06:08:32;7.22;;;3.47;;
21665;SDS011;10994;45.486;9.190;2022-09-03T06:10:59;4.05;;;2.85;;
21665;SDS011;10994;45.486;9.190;2022-09-03T06:13:25;12.20;;;3.35;;
21665;SDS011;10994;45.486;9.190;2022-09-03T06:16:01;2.67;;;2.47;;
21665;SDS011;10994;45.486;9.190;2022-09-03T06:18:28;3.60;;;2.88;;
21665;SDS011;10994;45.486;9.190;2022-09-03T06:20:58;3.22;;;2.92;;
21665;SDS011;10994;45.486;9.190;2022-09-03T06:23:29;6.03;;;2.47;;
21665;SDS011;10994;45.486;9.190;2022-09-03T06:26:05;3.40;;;2.42;;
21665;SDS011;10994;45.486;9.190;2022-09-03T06:28:32;3.92;;;2.45;;
21665;SDS011;10994;45.486;9.190;2022-09-03T06:31:00;3.35;;;2.33;;
21665;SDS011;10994;45.486;9.190;2022-09-03T06:33:27;4.75;;;2.70;;
21665;SDS011;10994;45.486;9.190;2022-09-03T06:35:57;3.80;;;2.67;;
21665;SDS011;10994;45.486;9.190;2022-09-03T06:38:24;5.13;;;2.50;;
21665;SDS011;10994;45.486;9.190;2022-09-03T06:40:52;4.97;;;2.53;;
21665;SDS011;10994;45.486;9.190;2022-09-03T06:43:22;3.55;;;2.60;;
21665;SDS011;10994;45.486;9.190;2022-09-03T06:45:55;5.63;;;2.60;;
21665;SDS011;10994;45.486;9.190;2022-09-03T06:48:22;2.72;;;2.53;;
21665;SDS011;10994;45.486;9.190;2022-09-03T06:53:29;3.13;;;2.33;;
21665;SDS011;10994;45.486;9.190;2022-09-03T06:56:00;3.58;;;2.47;;
21665;SDS011;10994;45.486;9.190;2022-09-03T06:58:32;2.88;;;2.33;;
21665;SDS011;10994;45.486;9.190;2022-09-03T07:01:02;2.92;;;2.45;;
21665;SDS011;10994;45.486;9.190;2022-09-03T07:03:31;6.88;;;2.70;;
21665;SDS011;10994;45.486;9.190;2022-09-03T07:06:00;2.60;;;2.40;;
21665;SDS011;10994;45.486;9.190;2022-09-03T07:08:29;3.60;;;2.28;;
21665;SDS011;10994;45.486;9.190;2022-09-03T07:11:00;4.88;;;2.70;;
21665;SDS011;10994;45.486;9.190;2022-09-03T07:13:36;6.30;;;2.88;;
21665;SDS011;10994;45.486;9.190;2022-09-03T07:16:14;6.47;;;2.80;;
21665;SDS011;10994;45.486;9.190;2022-09-03T07:18:48;3.65;;;3.20;;
21665;SDS011;10994;45.486;9.190;2022-09-03T07:21:21;4.35;;;2.95;;
21665;SDS011;10994;45.486;9.190;2022-09-03T07:23:51;4.15;;;3.13;;
21665;SDS011;10994;45.486;9.190;2022-09-03T07:26:22;3.70;;;2.92;;
21665;SDS011;10994;45.486;9.190;2022-09-03T07:28:49;5.88;;;3.03;;
21665;SDS011;10994;45.486;9.190;2022-09-03T07:31:16;5.22;;;3.33;;
21665;SDS011;10994;45.486;9.190;2022-09-03T07:33:45;4.15;;;3.20;;
21665;SDS011;10994;45.486;9.190;2022-09-03T07:36:12;4.72;;;2.92;;
21665;SDS011;10994;45.486;9.190;2022-09-03T07:38:40;8.27;;;3.33;;
21665;SDS011;10994;45.486;9.190;2022-09-03T07:41:07;5.95;;;3.45;;
21665;SDS011;10994;45.486;9.190;2022-09-03T07:43:35;4.75;;;3.80;;
21665;SDS011;10994;45.486;9.190;2022-09-03T07:46:09;5.85;;;3.33;;
21665;SDS011;10994;45.486;9.190;2022-09-03T07:48:39;3.53;;;3.10;;
21665;SDS011;10994;45.486;9.190;2022-09-03T07:51:05;4.25;;;3.33;;
21665;SDS011;10994;45.486;9.190;2022-09-03T07:53:32;3.70;;;2.95;;
21665;SDS011;10994;45.486;9.190;2022-09-03T07:56:02;5.60;;;3.22;;
21665;SDS011;10994;45.486;9.190;2022-09-03T07:58:33;4.00;;;3.60;;
21665;SDS011;10994;45.486;9.190;2022-09-03T08:01:18;4.20;;;3.80;;
21665;SDS011;10994;45.486;9.190;2022-09-03T08:03:46;6.88;;;4.40;;
21665;SDS011;10994;45.486;9.190;2022-09-03T08:06:14;6.15;;;4.32;;
21665;SDS011;10994;45.486;9.190;2022-09-03T08:08:41;7.13;;;3.92;;
21665;SDS011;10994;45.486;9.190;2022-09-03T08:11:12;4.53;;;4.10;;
21665;SDS011;10994;45.486;9.190;2022-09-03T08:13:40;4.20;;;3.80;;
21665;SDS011;10994;45.486;9.190;2022-09-03T08:16:09;4.43;;;4.03;;
21665;SDS011;10994;45.486;9.190;2022-09-03T08:18:35;4.20;;;3.80;;
21665;SDS011;10994;45.486;9.190;2022-09-03T08:21:03;5.05;;;3.97;;
21665;SDS011;10994;45.486;9.190;2022-09-03T08:23:41;5.68;;;4.13;;
21665;SDS011;10994;45.486;9.190;2022-09-03T08:26:08;4.68;;;4.18;;
21665;SDS011;10994;45.486;9.190;2022-09-03T08:28:34;4.53;;;4.13;;
21665;SDS011;10994;45.486;9.190;2022-09-03T08:31:10;4.20;;;3.75;;
21665;SDS011;10994;45.486;9.190;2022-09-03T08:33:39;4.38;;;3.80;;
21665;SDS011;10994;45.486;9.190;2022-09-03T08:36:14;5.72;;;4.93;;
21665;SDS011;10994;45.486;9.190;2022-09-03T08:38:43;5.30;;;4.80;;
21665;SDS011;10994;45.486;9.190;2022-09-03T08:46:23;6.78;;;4.97;;
21665;SDS011;10994;45.486;9.190;2022-09-03T08:48:56;8.50;;;5.40;;
21665;SDS011;10994;45.486;9.190;2022-09-03T08:51:23;6.65;;;4.90;;
21665;SDS011;10994;45.486;9.190;2022-09-03T08:53:53;5.63;;;5.07;;
21665;SDS011;10994;45.486;9.190;2022-09-03T08:56:27;5.50;;;4.60;;
21665;SDS011;10994;45.486;9.190;2022-09-03T08:58:55;4.95;;;4.30;;
21665;SDS011;10994;45.486;9.190;2022-09-03T09:01:35;5.55;;;5.05;;
21665;SDS011;10994;45.486;9.190;2022-09-03T09:17:40;4.85;;;4.30;;
21665;SDS011;10994;45.486;9.190;2022-09-03T09:22:58;5.70;;;4.32;;
21665;SDS011;10994;45.486;9.190;2022-09-03T09:25:30;4.70;;;4.30;;
21665;SDS011;10994;45.486;9.190;2022-09-03T09:28:16;7.97;;;4.07;;
21665;SDS011;10994;45.486;9.190;2022-09-03T09:30:51;4.60;;;4.20;;
21665;SDS011;10994;45.486;9.190;2022-09-03T09:33:20;7.50;;;4.05;;
21665;SDS011;10994;45.486;9.190;2022-09-03T09:35:47;5.00;;;4.03;;
21665;SDS011;10994;45.486;9.190;2022-09-03T09:38:13;5.10;;;4.10;;
21665;SDS011;10994;45.486;9.190;2022-09-03T09:40:42;4.50;;;4.00;;
21665;SDS011;10994;45.486;9.190;2022-09-03T09:43:15;4.25;;;3.85;;
21665;SDS011;10994;45.486;9.190;2022-09-03T09:45:47;5.07;;;4.57;;
21665;SDS011;10994;45.486;9.190;2022-09-03T09:48:30;4.78;;;4.38;;
21665;SDS011;10994;45.486;9.190;2022-09-03T09:51:18;4.25;;;3.85;;
21665;SDS011;10994;45.486;9.190;2022-09-03T09:53:59;4.00;;;3.65;;
21665;SDS011;10994;45.486;9.190;2022-09-03T09:56:35;4.35;;;4.00;;
21665;SDS011;10994;45.486;9.190;2022-09-03T09:59:01;5.05;;;4.55;;
21665;SDS011;10994;45.486;9.190;2022-09-03T10:01:31;4.55;;;4.15;;
21665;SDS011;10994;45.486;9.190;2022-09-03T10:03:58;4.50;;;4.10;;
21665;SDS011;10994;45.486;9.190;2022-09-03T10:06:32;4.32;;;3.95;;
21665;SDS011;10994;45.486;9.190;2022-09-03T10:09:21;6.88;;;3.42;;
21665;SDS011;10994;45.486;9.190;2022-09-03T10:14:32;4.10;;;3.80;;
21665;SDS011;10994;45.486;9.190;2022-09-03T10:17:08;4.82;;;3.67;;
21665;SDS011;10994;45.486;9.190;2022-09-03T10:20:16;3.65;;;3.33;;
21665;SDS011;10994;45.486;9.190;2022-09-03T10:23:21;7.05;;;4.25;;
21665;SDS011;10994;45.486;9.190;2022-09-03T10:25:51;5.10;;;4.35;;
21665;SDS011;10994;45.486;9.190;2022-09-03T10:28:34;4.50;;;4.10;;
21665;SDS011;10994;45.486;9.190;2022-09-03T10:34:08;4.93;;;4.20;;
21665;SDS011;10994;45.486;9.190;2022-09-03T10:42:34;5.88;;;5.07;;
21665;SDS011;10994;45.486;9.190;2022-09-03T10:48:01;6.45;;;5.93;;
21665;SDS011;10994;45.486;9.190;2022-09-03T10:50:47;5.07;;;4.68;;
21665;SDS011;10994;45.486;9.190;2022-09-03T10:59:33;7.53;;;6.03;;
21665;SDS011;10994;45.486;9.190;2022-09-03T11:04:55;5.50;;;4.63;;
21665;SDS011;10994;45.486;9.190;2022-09-03T11:07:36;4.82;;;3.50;;
21665;SDS011;10994;45.486;9.190;2022-09-03T11:12:45;6.38;;;5.85;;
21665;SDS011;10994;45.486;9.190;2022-09-03T11:20:50;9.05;;;6.28;;
21665;SDS011;10994;45.486;9.190;2022-09-03T11:23:19;6.93;;;5.90;;
21665;SDS011;10994;45.486;9.190;2022-09-03T11:25:49;7.68;;;5.05;;
21665;SDS011;10994;45.486;9.190;2022-09-03T11:31:12;5.75;;;5.10;;
21665;SDS011;10994;45.486;9.190;2022-09-03T11:33:50;6.25;;;5.50;;
21665;SDS011;10994;45.486;9.190;2022-09-03T11:36:25;7.82;;;6.15;;
21665;SDS011;10994;45.486;9.190;2022-09-03T11:38:54;6.22;;;5.25;;
21665;SDS011;10994;45.486;9.190;2022-09-03T11:41:24;10.02;;;7.32;;
21665;SDS011;10994;45.486;9.190;2022-09-03T11:43:51;6.40;;;4.50;;
21665;SDS011;10994;45.486;9.190;2022-09-03T11:49:30;7.60;;;4.60;;
21665;SDS011;10994;45.486;9.190;2022-09-03T11:51:54;7.57;;;5.72;;
21665;SDS011;10994;45.486;9.190;2022-09-03T11:54:31;5.05;;;4.65;;
21665;SDS011;10994;45.486;9.190;2022-09-03T11:57:11;6.20;;;5.60;;
21665;SDS011;10994;45.486;9.190;2022-09-03T11:59:39;6.55;;;5.68;;
21665;SDS011;10994;45.486;9.190;2022-09-03T12:02:13;5.93;;;5.20;;
21665;SDS011;10994;45.486;9.190;2022-09-03T12:10:38;4.88;;;4.38;;
21665;SDS011;10994;45.486;9.190;2022-09-03T12:13:26;6.18;;;4.55;;
21665;SDS011;10994;45.486;9.190;2022-09-03T12:19:03;4.18;;;3.83;;
21665;SDS011;10994;45.486;9.190;2022-09-03T12:21:47;6.75;;;4.28;;
21665;SDS011;10994;45.486;9.190;2022-09-03T12:24:14;4.93;;;3.85;;
21665;SDS011;10994;45.486;9.190;2022-09-03T12:26:41;5.28;;;4.78;;
21665;SDS011;10994;45.486;9.190;2022-09-03T12:29:19;5.88;;;4.00;;
21665;SDS011;10994;45.486;9.190;2022-09-03T12:31:52;8.77;;;4.53;;
21665;SDS011;10994;45.486;9.190;2022-09-03T12:34:20;6.25;;;4.38;;
21665;SDS011;10994;45.486;9.190;2022-09-03T12:36:51;3.72;;;3.42;;
21665;SDS011;10994;45.486;9.190;2022-09-03T12:39:22;4.40;;;4.05;;
21665;SDS011;10994;45.486;9.190;2022-09-03T12:42:05;4.30;;;3.47;;
21665;SDS011;10994;45.486;9.190;2022-09-03T12:47:10;3.90;;;3.50;;
21665;SDS011;10994;45.486;9.190;2022-09-03T12:49:38;4.47;;;3.22;;
21665;SDS011;10994;45.486;9.190;2022-09-03T12:52:16;2.90;;;2.60;;
21665;SDS011;10994;45.486;9.190;2022-09-03T12:57:56;3.13;;;2.47;;
21665;SDS011;10994;45.486;9.190;2022-09-03T13:00:30;3.72;;;2.53;;
21665;SDS011;10994;45.486;9.190;2022-09-03T13:03:03;2.67;;;2.45;;
21665;SDS011;10994;45.486;9.190;2022-09-03T13:05:47;2.78;;;2.58;;
21665;SDS011;10994;45.486;9.190;2022-09-03T13:08:22;6.85;;;3.30;;
21665;SDS011;10994;45.486;9.190;2022-09-03T13:10:55;3.60;;;3.20;;
21665;SDS011;10994;45.486;9.190;2022-09-03T13:13:32;3.80;;;3.10;;
21665;SDS011;10994;45.486;9.190;2022-09-03T13:30:03;6.57;;;4.43;;
21665;SDS011;10994;45.486;9.190;2022-09-03T13:43:44;4.90;;;4.35;;
21665;SDS011;10994;45.486;9.190;2022-09-03T13:46:29;5.05;;;4.32;;
21665;SDS011;10994;45.486;9.190;2022-09-03T13:49:08;3.75;;;3.40;;
21665;SDS011;10994;45.486;9.190;2022-09-03T13:52:02;5.53;;;4.20;;
21665;SDS011;10994;45.486;9.190;2022-09-03T13:54:36;4.35;;;3.95;;
21665;SDS011;10994;45.486;9.190;2022-09-03T14:25:20;5.00;;;3.33;;
21665;SDS011;10994;45.486;9.190;2022-09-03T14:27:48;4.35;;;3.95;;
21665;SDS011;10994;45.486;9.190;2022-09-03T14:30:25;3.78;;;3.47;;
21665;SDS011;10994;45.486;9.190;2022-09-03T14:33:18;7.63;;;3.72;;
21665;SDS011;10994;45.486;9.190;2022-09-03T14:42:12;4.28;;;3.08;;
21665;SDS011;10994;45.486;9.190;2022-09-03T14:44:56;3.63;;;3.28;;
21665;SDS011;10994;45.486;9.190;2022-09-03T15:01:31;4.53;;;3.97;;
21665;SDS011;10994;45.486;9.190;2022-09-03T15:11:48;5.80;;;3.40;;
21665;SDS011;10994;45.486;9.190;2022-09-03T15:14:21;4.03;;;3.63;;
21665;SDS011;10994;45.486;9.190;2022-09-03T15:19:53;4.57;;;4.18;;
21665;SDS011;10994;45.486;9.190;2022-09-03T15:23:02;3.55;;;3.25;;
21665;SDS011;10994;45.486;9.190;2022-09-03T15:25:46;3.80;;;3.50;;
21665;SDS011;10994;45.486;9.190;2022-09-03T15:31:00;3.53;;;3.22;;
21665;SDS011;10994;45.486;9.190;2022-09-03T15:36:38;5.75;;;3.92;;
21665;SDS011;10994;45.486;9.190;2022-09-03T15:39:12;4.60;;;3.58;;
21665;SDS011;10994;45.486;9.190;2022-09-03T15:41:49;5.47;;;3.83;;
21665;SDS011;10994;45.486;9.190;2022-09-03T15:44:23;7.35;;;5.47;;
21665;SDS011;10994;45.486;9.190;2022-09-03T15:46:53;4.82;;;4.30;;
21665;SDS011;10994;45.486;9.190;2022-09-03T15:49:43;5.40;;;3.30;;
21665;SDS011;10994;45.486;9.190;2022-09-03T15:55:11;3.75;;;3.40;;
21665;SDS011;10994;45.486;9.190;2022-09-03T15:58:00;3.90;;;3.20;;
21665;SDS011;10994;45.486;9.190;2022-09-03T16:03:16;6.05;;;3.22;;
21665;SDS011;10994;45.486;9.190;2022-09-03T16:05:56;3.58;;;3.28;;
21665;SDS011;10994;45.486;9.190;2022-09-03T16:08:41;3.83;;;3.53;;
21665;SDS011;10994;45.486;9.190;2022-09-03T16:11:21;3.42;;;2.92;;
21665;SDS011;10994;45.486;9.190;2022-09-03T16:17:15;4.05;;;3.45;;
21665;SDS011;10994;45.486;9.190;2022-09-03T16:19:40;3.80;;;3.50;;
21665;SDS011;10994;45.486;9.190;2022-09-03T16:22:13;3.92;;;3.28;;
21665;SDS011;10994;45.486;9.190;2022-09-03T16:25:09;4.25;;;3.40;;
21665;SDS011;10994;45.486;9.190;2022-09-03T16:30:28;3.40;;;3.10;;
21665;SDS011;10994;45.486;9.190;2022-09-03T16:35:39;6.00;;;4.50;;
21665;SDS011;10994;45.486;9.190;2022-09-03T16:38:31;5.13;;;3.97;;
21665;SDS011;10994;45.486;9.190;2022-09-03T16:41:22;6.60;;;4.95;;
21665;SDS011;10994;45.486;9.190;2022-09-03T16:49:53;6.22;;;5.15;;
21665;SDS011;10994;45.486;9.190;2022-09-03T16:55:22;5.38;;;4.88;;
21665;SDS011;10994;45.486;9.190;2022-09-03T16:58:01;5.22;;;4.78;;
21665;SDS011;10994;45.486;9.190;2022-09-03T17:03:58;5.57;;;4.32;;
21665;SDS011;10994;45.486;9.190;2022-09-03T17:06:40;4.82;;;4.38;;
21665;SDS011;10994;45.486;9.190;2022-09-03T17:12:13;4.97;;;4.47;;
21665;SDS011;10994;45.486;9.190;2022-09-03T17:15:29;5.40;;;5.00;;
21665;SDS011;10994;45.486;9.190;2022-09-03T17:21:03;4.90;;;4.50;;
21665;SDS011;10994;45.486;9.190;2022-09-03T17:43:27;5.32;;;4.68;;
21665;SDS011;10994;45.486;9.190;2022-09-03T17:49:13;5.93;;;5.38;;
21665;SDS011;10994;45.486;9.190;2022-09-03T17:54:34;4.97;;;4.53;;
21665;SDS011;10994;45.486;9.190;2022-09-03T17:59:54;5.93;;;5.35;;
21665;SDS011;10994;45.486;9.190;2022-09-03T18:05:29;6.07;;;5.47;;
21665;SDS011;10994;45.486;9.190;2022-09-03T18:08:06;5.53;;;5.03;;
21665;SDS011;10994;45.486;9.190;2022-09-03T18:11:08;5.25;;;4.82;;
21665;SDS011;10994;45.486;9.190;2022-09-03T18:17:26;6.05;;;5.45;;
21665;SDS011;10994;45.486;9.190;2022-09-03T18:19:38;10.90;;;5.38;;
21665;SDS011;10994;45.486;9.190;2022-09-03T18:22:35;6.25;;;5.65;;
21665;SDS011;10994;45.486;9.190;2022-09-03T18:25:35;5.85;;;5.30;;
21665;SDS011;10994;45.486;9.190;2022-09-03T18:28:26;7.65;;;5.70;;
21665;SDS011;10994;45.486;9.190;2022-09-03T18:31:25;6.97;;;5.70;;
21665;SDS011;10994;45.486;9.190;2022-09-03T18:34:10;5.63;;;5.13;;
21665;SDS011;10994;45.486;9.190;2022-09-03T18:37:01;8.00;;;4.85;;
21665;SDS011;10994;45.486;9.190;2022-09-03T18:39:45;7.00;;;5.10;;
21665;SDS011;10994;45.486;9.190;2022-09-03T18:48:40;5.90;;;5.13;;
21665;SDS011;10994;45.486;9.190;2022-09-03T18:54:23;10.10;;;5.43;;
21665;SDS011;10994;45.486;9.190;2022-09-03T18:57:23;7.15;;;6.45;;
21665;SDS011;10994;45.486;9.190;2022-09-03T19:00:14;6.25;;;5.75;;
21665;SDS011;10994;45.486;9.190;2022-09-03T19:09:40;7.18;;;6.20;;
21665;SDS011;10994;45.486;9.190;2022-09-03T19:15:28;8.70;;;7.80;;
21665;SDS011;10994;45.486;9.190;2022-09-03T19:18:52;5.95;;;4.75;;
21665;SDS011;10994;45.486;9.190;2022-09-03T19:21:48;6.22;;;4.85;;
21665;SDS011;10994;45.486;9.190;2022-09-03T19:24:37;5.57;;;5.07;;
21665;SDS011;10994;45.486;9.190;2022-09-03T19:27:28;7.25;;;5.00;;
21665;SDS011;10994;45.486;9.190;2022-09-03T19:33:59;6.40;;;5.82;;
21665;SDS011;10994;45.486;9.190;2022-09-03T19:37:00;5.80;;;5.18;;
21665;SDS011;10994;45.486;9.190;2022-09-03T19:52:06;3.50;;;3.20;;
21665;SDS011;10994;45.486;9.190;2022-09-03T19:54:56;8.68;;;2.90;;
21665;SDS011;10994;45.486;9.190;2022-09-03T19:57:42;3.10;;;2.50;;
21665;SDS011;10994;45.486;9.190;2022-09-03T20:00:30;3.40;;;2.42;;
21665;SDS011;10994;45.486;9.190;2022-09-03T20:03:15;5.47;;;2.58;;
21665;SDS011;10994;45.486;9.190;2022-09-03T20:06:00;3.10;;;2.80;;
21665;SDS011;10994;45.486;9.190;2022-09-03T20:08:59;2.70;;;2.40;;
21665;SDS011;10994;45.486;9.190;2022-09-03T20:11:49;5.68;;;2.97;;
21665;SDS011;10994;45.486;9.190;2022-09-03T20:14:18;3.28;;;2.53;;
21665;SDS011;10994;45.486;9.190;2022-09-03T20:22:07;3.38;;;3.03;;
21665;SDS011;10994;45.486;9.190;2022-09-03T20:30:00;4.65;;;3.00;;
21665;SDS011;10994;45.486;9.190;2022-09-03T20:35:56;2.85;;;2.30;;
21665;SDS011;10994;45.486;9.190;2022-09-03T20:44:17;7.50;;;5.32;;
21665;SDS011;10994;45.486;9.190;2022-09-03T20:47:05;9.35;;;2.90;;
21665;SDS011;10994;45.486;9.190;2022-09-03T20:49:50;2.47;;;2.28;;
21665;SDS011;10994;45.486;9.190;2022-09-03T20:52:19;2.92;;;2.33;;
21665;SDS011;10994;45.486;9.190;2022-09-03T21:00:20;4.63;;;3.05;;
21665;SDS011;10994;45.486;9.190;2022-09-03T21:10:56;3.67;;;2.95;;
21665;SDS011;10994;45.486;9.190;2022-09-03T21:13:34;10.15;;;4.35;;
21665;SDS011;10994;45.486;9.190;2022-09-03T21:16:20;3.08;;;2.78;;
21665;SDS011;10994;45.486;9.190;2022-09-03T21:22:19;3.80;;;3.40;;
21665;SDS011;10994;45.486;9.190;2022-09-03T21:24:59;5.15;;;4.65;;
21665;SDS011;10994;45.486;9.190;2022-09-03T21:27:34;2.75;;;2.08;;
21665;SDS011;10994;45.486;9.190;2022-09-03T21:30:04;2.35;;;2.13;;